createdAt,value
2023-01-12T00:01:54.115Z,100.00
2023-01-12T00:04:21.726Z,100.00
2023-01-12T00:06:49.476Z,100.00
2023-01-12T00:09:17.073Z,100.00
2023-01-12T00:11:44.669Z,100.00
2023-01-12T00:14:12.461Z,100.00
2023-01-12T00:16:41.813Z,100.00
2023-01-12T00:19:15.493Z,100.00
2023-01-12T00:21:54.097Z,100.00
2023-01-12T00:24:21.825Z,100.00
2023-01-12T00:26:49.850Z,100.00
2023-01-12T00:29:17.954Z,100.00
2023-01-12T00:31:47.076Z,100.00
2023-01-12T00:34:15.534Z,100.00
2023-01-12T00:36:43.156Z,100.00
2023-01-12T00:39:10.670Z,100.00
2023-01-12T00:41:56.217Z,100.00
2023-01-12T00:44:41.591Z,100.00
2023-01-12T00:47:10.759Z,100.00
2023-01-12T00:49:38.867Z,100.00
2023-01-12T00:52:08.527Z,100.00
2023-01-12T00:54:37.418Z,100.00
2023-01-12T00:57:05.529Z,100.00
2023-01-12T00:59:33.110Z,100.00
2023-01-12T01:02:00.784Z,100.00
2023-01-12T01:04:29.704Z,100.00
2023-01-12T01:06:57.291Z,100.00
2023-01-12T01:09:24.816Z,100.00
2023-01-12T01:11:52.367Z,100.00
2023-01-12T01:14:19.875Z,100.00
2023-01-12T01:16:47.420Z,100.00
2023-01-12T01:19:15.094Z,100.00
2023-01-12T01:21:43.934Z,100.00
2023-01-12T01:24:12.683Z,100.00
2023-01-12T01:26:40.934Z,100.00
2023-01-12T01:29:09.056Z,100.00
2023-01-12T01:31:37.032Z,100.00
2023-01-12T01:34:04.713Z,100.00
2023-01-12T01:36:32.279Z,100.00
2023-01-12T01:39:01.446Z,100.00
2023-01-12T01:41:30.530Z,100.00
2023-01-12T01:44:00.454Z,100.00
2023-01-12T01:46:35.678Z,100.00
2023-01-12T01:49:10.971Z,100.00
2023-01-12T01:51:40.396Z,100.00
2023-01-12T01:54:09.281Z,100.00
2023-01-12T01:56:37.478Z,100.00
2023-01-12T01:59:07.948Z,100.00
2023-01-12T02:01:35.822Z,100.00
2023-01-12T02:04:03.593Z,100.00
2023-01-12T02:06:31.630Z,100.00
2023-01-12T02:09:00.297Z,100.00
2023-01-12T02:11:46.812Z,100.00
2023-01-12T02:14:32.208Z,100.00
2023-01-12T02:17:09.109Z,100.00
2023-01-12T02:19:50.647Z,100.00
2023-01-12T02:22:46.891Z,100.00
2023-01-12T02:25:26.059Z,100.00
2023-01-12T02:28:16.950Z,100.00
2023-01-12T02:31:04.608Z,100.00
2023-01-12T02:33:39.681Z,100.00
2023-01-12T02:36:11.291Z,100.00
2023-01-12T02:38:43.489Z,100.00
2023-01-12T02:41:40.492Z,100.00
2023-01-12T02:44:09.800Z,100.00
2023-01-12T02:46:39.792Z,100.00
2023-01-12T02:49:10.888Z,100.00
2023-01-12T02:51:42.220Z,100.00
2023-01-12T02:54:11.897Z,100.00
2023-01-12T02:56:43.382Z,100.00
2023-01-12T02:59:15.940Z,100.00
2023-01-12T03:01:46.113Z,100.00
2023-01-12T03:04:15.551Z,100.00
2023-01-12T03:06:46.487Z,100.00
2023-01-12T03:09:15.673Z,100.00
2023-01-12T03:11:44.232Z,100.00
2023-01-12T03:14:12.251Z,100.00
2023-01-12T03:16:40.382Z,100.00
2023-01-12T03:19:12.467Z,100.00
2023-01-12T03:21:41.767Z,100.00
2023-01-12T03:24:10.998Z,100.00
2023-01-12T03:26:41.248Z,100.00
2023-01-12T03:29:13.476Z,100.00
2023-01-12T03:31:41.708Z,100.00
2023-01-12T03:34:11.153Z,100.00
2023-01-12T03:36:46.320Z,100.00
2023-01-12T03:39:18.143Z,100.00
2023-01-12T03:41:56.087Z,100.00
2023-01-12T03:44:29.703Z,100.00
2023-01-12T03:47:00.262Z,100.00
2023-01-12T03:49:34.083Z,100.00
2023-01-12T03:52:03.196Z,100.00
2023-01-12T03:54:32.062Z,100.00
2023-01-12T03:57:00.685Z,100.00
2023-01-12T03:59:28.305Z,100.00
2023-01-12T04:01:56.038Z,100.00
2023-01-12T04:04:23.931Z,100.00
2023-01-12T04:06:52.821Z,100.00
2023-01-12T04:09:22.824Z,100.00
2023-01-12T04:12:08.344Z,100.00
2023-01-12T04:14:35.854Z,100.00
2023-01-12T04:17:03.403Z,100.00
2023-01-12T04:19:30.907Z,100.00
2023-01-12T04:22:17.620Z,100.00
2023-01-12T04:24:45.144Z,100.00
2023-01-12T04:27:12.665Z,100.00
2023-01-12T04:29:40.253Z,100.00
2023-01-12T04:32:08.254Z,100.00
2023-01-12T04:34:35.844Z,100.00
2023-01-12T04:37:05.476Z,100.00
2023-01-12T04:39:32.984Z,100.00
2023-01-12T04:42:00.508Z,100.00
2023-01-12T04:44:28.189Z,100.00
2023-01-12T04:46:55.747Z,100.00
2023-01-12T04:49:23.621Z,100.00
2023-01-12T04:51:51.152Z,100.00
2023-01-12T04:54:20.011Z,100.00
2023-01-12T04:56:47.520Z,100.00
2023-01-12T04:59:15.042Z,100.00
2023-01-12T05:01:43.096Z,100.00
2023-01-12T05:04:10.677Z,100.00
2023-01-12T05:06:38.224Z,100.00
2023-01-12T05:09:23.356Z,100.00
2023-01-12T05:11:52.225Z,100.00
2023-01-12T05:14:19.754Z,100.00
2023-01-12T05:16:47.285Z,100.00
2023-01-12T05:19:14.996Z,100.00
2023-01-12T05:21:43.557Z,100.00
2023-01-12T05:24:11.148Z,100.00
2023-01-12T05:26:38.796Z,100.00
2023-01-12T05:29:09.086Z,100.00
2023-01-12T05:31:36.627Z,100.00
2023-01-12T05:34:04.260Z,100.00
2023-01-12T05:36:31.857Z,100.00
2023-01-12T05:38:59.712Z,100.00
2023-01-12T05:41:27.292Z,100.00
2023-01-12T05:43:54.747Z,100.00
2023-01-12T05:46:25.446Z,100.00
2023-01-12T05:48:54.275Z,100.00
2023-01-12T05:51:22.465Z,100.00
2023-01-12T05:53:50.042Z,100.00
2023-01-12T05:56:19.743Z,100.00
2023-01-12T05:58:51.195Z,100.00
2023-01-12T06:01:18.815Z,100.00
2023-01-12T06:03:52.225Z,100.00
2023-01-12T06:06:20.286Z,100.00
2023-01-12T06:08:48.207Z,100.00
2023-01-12T06:11:30.436Z,100.00
2023-01-12T06:13:57.971Z,100.00
2023-01-12T06:16:25.957Z,100.00
2023-01-12T06:18:55.076Z,100.00
2023-01-12T06:21:22.873Z,100.00
2023-01-12T06:23:50.737Z,100.00
2023-01-12T06:26:18.381Z,100.00
2023-01-12T06:28:45.949Z,100.00
2023-01-12T06:31:14.836Z,100.00
2023-01-12T06:33:42.655Z,100.00
2023-01-12T06:36:12.372Z,100.00
2023-01-12T06:38:40.098Z,100.00
2023-01-12T06:41:29.065Z,100.00
2023-01-12T06:43:56.736Z,100.00
2023-01-12T06:46:24.512Z,100.00
2023-01-12T06:48:52.034Z,100.00
2023-01-12T06:51:20.977Z,100.00
2023-01-12T06:53:48.534Z,100.00
2023-01-12T06:56:16.117Z,100.00
2023-01-12T06:58:43.645Z,100.00
2023-01-12T07:01:11.575Z,100.00
2023-01-12T07:03:39.192Z,100.00
2023-01-12T07:06:07.571Z,100.00
2023-01-12T07:08:36.809Z,100.00
2023-01-12T07:11:04.720Z,100.00
2023-01-12T07:13:32.476Z,100.00
2023-01-12T07:16:00.530Z,100.00
2023-01-12T07:18:28.524Z,100.00
2023-01-12T07:20:56.073Z,100.00
2023-01-12T07:23:23.782Z,100.00
2023-01-12T07:25:52.644Z,100.00
2023-01-12T07:28:20.279Z,100.00
2023-01-12T07:30:47.877Z,100.00
2023-01-12T07:33:18.529Z,100.00
2023-01-12T07:35:46.318Z,100.00
2023-01-12T07:38:13.889Z,100.00
2023-01-12T07:40:41.996Z,100.00
2023-01-12T07:43:11.683Z,100.00
2023-01-12T07:45:39.272Z,100.00
2023-01-12T07:48:07.491Z,100.00
2023-01-12T07:50:36.783Z,100.00
2023-01-12T07:53:05.124Z,100.00
2023-01-12T07:55:32.896Z,100.00
2023-01-12T07:58:03.118Z,100.00
2023-01-12T08:00:32.437Z,100.00
2023-01-12T08:03:05.536Z,100.00
2023-01-12T08:05:33.139Z,100.00
2023-01-12T08:08:03.270Z,100.00
2023-01-12T08:10:31.095Z,100.00
2023-01-12T08:12:58.639Z,100.00
2023-01-12T08:15:27.886Z,100.00
2023-01-12T08:18:00.095Z,100.00
2023-01-12T08:20:31.481Z,100.00
2023-01-12T08:23:04.100Z,100.00
2023-01-12T08:25:35.593Z,100.00
2023-01-12T08:28:07.195Z,100.00
2023-01-12T08:30:35.176Z,100.00
2023-01-12T08:33:04.149Z,100.00
2023-01-12T08:35:33.877Z,100.00
2023-01-12T08:38:01.627Z,100.00
2023-01-12T08:40:49.153Z,100.00
2023-01-12T08:43:38.311Z,100.00
2023-01-12T08:46:07.943Z,100.00
2023-01-12T08:48:37.143Z,100.00
2023-01-12T08:51:05.020Z,100.00
2023-01-12T08:53:32.912Z,100.00
2023-01-12T08:56:00.783Z,100.00
2023-01-12T08:58:28.634Z,100.00
2023-01-12T09:00:56.501Z,100.00
2023-01-12T09:03:24.198Z,100.00
2023-01-12T09:05:53.193Z,100.00
2023-01-12T09:08:20.799Z,100.00
2023-01-12T09:10:48.393Z,100.00
2023-01-12T09:13:16.376Z,100.00
2023-01-12T09:15:56.517Z,100.00
2023-01-12T09:18:31.653Z,100.00
2023-01-12T09:21:06.845Z,100.00
2023-01-12T09:23:34.826Z,100.00
2023-01-12T09:26:06.507Z,100.00
2023-01-12T09:28:34.523Z,100.00
2023-01-12T09:31:03.501Z,100.00
2023-01-12T09:33:31.808Z,100.00
2023-01-12T09:36:04.740Z,100.00
2023-01-12T09:38:32.645Z,100.00
2023-01-12T09:41:02.694Z,100.00
2023-01-12T09:43:48.067Z,100.00
2023-01-12T09:46:37.579Z,100.00
2023-01-12T09:49:05.655Z,100.00
2023-01-12T09:51:38.223Z,100.00
2023-01-12T09:54:06.543Z,100.00
2023-01-12T09:56:39.581Z,100.00
2023-01-12T09:59:22.143Z,100.00
2023-01-12T10:01:53.002Z,100.00
2023-01-12T10:04:21.194Z,100.00
2023-01-12T10:06:50.064Z,100.00
2023-01-12T10:09:19.549Z,100.00
2023-01-12T10:11:53.067Z,100.00
2023-01-12T10:14:45.293Z,100.00
2023-01-12T10:17:27.718Z,100.00
2023-01-12T10:20:02.395Z,100.00
2023-01-12T10:22:38.883Z,100.00
2023-01-12T10:25:15.871Z,100.00
2023-01-12T10:27:45.885Z,100.00
2023-01-12T10:30:16.467Z,100.00
2023-01-12T10:32:43.986Z,100.00
2023-01-12T10:35:16.665Z,100.00
2023-01-12T10:37:47.098Z,100.00
2023-01-12T10:40:28.308Z,100.00
2023-01-12T10:43:23.447Z,100.00
2023-01-12T10:46:10.728Z,100.00
2023-01-12T10:48:40.011Z,100.00
2023-01-12T10:51:09.147Z,100.00
2023-01-12T10:53:42.503Z,100.00
2023-01-12T10:56:15.889Z,100.00
2023-01-12T10:58:47.930Z,100.00
2023-01-12T11:01:15.845Z,100.00
2023-01-12T11:03:43.427Z,100.00
2023-01-12T11:06:24.650Z,100.00
2023-01-12T11:08:53.855Z,100.00
2023-01-12T11:11:27.664Z,100.00
2023-01-12T11:13:57.532Z,100.00
2023-01-12T11:16:26.208Z,100.00
2023-01-12T11:19:05.867Z,100.00
2023-01-12T11:21:35.573Z,100.00
2023-01-12T11:24:07.129Z,100.00
2023-01-12T11:26:40.299Z,100.00
2023-01-12T11:29:22.541Z,100.00
2023-01-12T11:31:51.964Z,100.00
2023-01-12T11:34:23.373Z,100.00
2023-01-12T11:36:53.834Z,100.00
2023-01-12T11:39:24.554Z,100.00
2023-01-12T11:42:07.961Z,100.00
2023-01-12T11:44:40.488Z,100.00
2023-01-12T11:47:12.124Z,100.00
2023-01-12T11:49:43.565Z,100.00
2023-01-12T11:52:13.211Z,100.00
2023-01-12T11:54:42.207Z,100.00
2023-01-12T11:57:23.916Z,100.00
2023-01-12T12:00:01.182Z,100.00
2023-01-12T12:02:34.320Z,100.00
2023-01-12T12:05:11.342Z,100.00
2023-01-12T12:07:50.966Z,100.00
2023-01-12T12:10:25.317Z,100.00
2023-01-12T12:13:13.091Z,100.00
2023-01-12T12:15:46.111Z,100.00
2023-01-12T12:18:22.696Z,100.00
2023-01-12T12:21:01.154Z,100.00
2023-01-12T12:23:32.630Z,100.00
2023-01-12T12:26:10.625Z,100.00
2023-01-12T12:29:03.859Z,100.00
2023-01-12T12:31:50.719Z,100.00
2023-01-12T12:34:32.782Z,100.00
2023-01-12T12:37:04.310Z,100.00
2023-01-12T12:39:38.641Z,100.00
2023-01-12T12:42:34.214Z,100.00
2023-01-12T12:45:21.408Z,100.00
2023-01-12T12:47:59.077Z,100.00
2023-01-12T12:50:30.622Z,100.00
2023-01-12T12:53:06.864Z,100.00
2023-01-12T12:55:35.563Z,100.00
2023-01-12T12:58:06.099Z,100.00
2023-01-12T13:00:40.386Z,100.00
2023-01-12T13:03:08.843Z,100.00
2023-01-12T13:05:44.346Z,100.00
2023-01-12T13:08:20.628Z,100.00
2023-01-12T13:10:55.533Z,100.00
2023-01-12T13:13:34.815Z,100.00
2023-01-12T13:16:40.965Z,100.00
2023-01-12T13:19:14.185Z,100.00
2023-01-12T13:21:57.888Z,100.00
2023-01-12T13:24:30.496Z,100.00
2023-01-12T13:27:00.664Z,100.00
2023-01-12T13:29:44.465Z,100.00
2023-01-12T13:32:38.099Z,100.00
2023-01-12T13:35:24.374Z,100.00
2023-01-12T13:37:56.226Z,100.00
2023-01-12T13:40:28.316Z,100.00
2023-01-12T13:43:15.397Z,100.00
2023-01-12T13:45:51.105Z,100.00
2023-01-12T13:48:20.196Z,100.00
2023-01-12T13:50:49.147Z,100.00
2023-01-12T13:53:22.756Z,100.00
2023-01-12T13:55:58.288Z,100.00
2023-01-12T13:58:25.928Z,100.00
2023-01-12T14:01:00.508Z,100.00
2023-01-12T14:03:49.400Z,100.00
2023-01-12T14:06:22.129Z,100.00
2023-01-12T14:08:55.993Z,100.00
2023-01-12T14:11:36.246Z,100.00
2023-01-12T14:14:28.375Z,100.00
2023-01-12T14:17:16.307Z,100.00
2023-01-12T14:19:50.772Z,100.00
2023-01-12T14:22:20.327Z,100.00
2023-01-12T14:24:47.866Z,100.00
2023-01-12T14:27:22.830Z,100.00
2023-01-12T14:29:50.948Z,100.00
2023-01-12T14:32:21.613Z,99.17
2023-01-12T14:34:52.250Z,100.00
2023-01-12T14:37:26.661Z,100.00
2023-01-12T14:39:54.218Z,99.44
2023-01-12T14:42:39.631Z,98.28
2023-01-12T14:45:40.257Z,98.00
2023-01-12T14:48:23.489Z,95.47
2023-01-12T14:51:02.615Z,95.09
2023-01-12T14:53:34.346Z,94.76
2023-01-12T14:56:10.703Z,94.94
2023-01-12T14:58:38.848Z,96.31
2023-01-12T15:01:06.588Z,96.11
2023-01-12T15:03:43.691Z,95.26
2023-01-12T15:06:15.669Z,93.64
2023-01-12T15:08:54.215Z,93.95
2023-01-12T15:11:31.056Z,94.48
2023-01-12T15:13:59.533Z,94.76
2023-01-12T15:16:44.624Z,94.14
2023-01-12T15:19:31.368Z,93.90
2023-01-12T15:22:17.197Z,94.62
2023-01-12T15:25:02.648Z,94.63
2023-01-12T15:27:30.415Z,94.20
2023-01-12T15:29:57.990Z,94.89
2023-01-12T15:32:46.194Z,95.99
2023-01-12T15:35:17.852Z,96.67
2023-01-12T15:37:45.845Z,97.21
2023-01-12T15:40:15.060Z,96.76
2023-01-12T15:42:42.873Z,95.70
2023-01-12T15:45:21.315Z,97.11
2023-01-12T15:47:48.828Z,97.49
2023-01-12T15:50:18.086Z,97.67
2023-01-12T15:52:45.705Z,97.00
2023-01-12T15:55:17.100Z,97.36
2023-01-12T15:57:45.411Z,98.44
2023-01-12T16:00:15.994Z,98.72
2023-01-12T16:02:45.341Z,98.76
2023-01-12T16:05:13.470Z,99.01
2023-01-12T16:07:42.371Z,99.00
2023-01-12T16:10:11.661Z,98.63
2023-01-12T16:12:39.392Z,98.68
2023-01-12T16:15:16.224Z,99.37
2023-01-12T16:17:43.775Z,99.60
2023-01-12T16:20:12.284Z,99.82
2023-01-12T16:22:39.872Z,99.32
2023-01-12T16:25:09.702Z,100.00
2023-01-12T16:27:38.085Z,100.00
2023-01-12T16:30:07.324Z,100.00
2023-01-12T16:32:34.893Z,100.00
2023-01-12T16:35:02.519Z,100.00
2023-01-12T16:37:33.161Z,100.00
2023-01-12T16:40:00.996Z,100.00
2023-01-12T16:42:30.052Z,100.00
2023-01-12T16:44:57.625Z,100.00
2023-01-12T16:47:25.418Z,100.00
2023-01-12T16:49:53.426Z,100.00
2023-01-12T16:52:22.541Z,100.00
2023-01-12T16:54:50.097Z,100.00
2023-01-12T16:57:18.863Z,100.00
2023-01-12T16:59:49.545Z,100.00
2023-01-12T17:02:18.768Z,100.00
2023-01-12T17:04:48.963Z,100.00
2023-01-12T17:07:16.648Z,100.00
2023-01-12T17:09:44.625Z,100.00
2023-01-12T17:12:12.203Z,100.00
2023-01-12T17:14:39.911Z,100.00
2023-01-12T17:17:10.557Z,100.00
2023-01-12T17:19:42.235Z,100.00
2023-01-12T17:22:10.628Z,100.00
2023-01-12T17:24:40.267Z,100.00
2023-01-12T17:27:09.201Z,100.00
2023-01-12T17:29:37.099Z,100.00
2023-01-12T17:32:07.253Z,100.00
2023-01-12T17:34:38.530Z,100.00
2023-01-12T17:37:08.324Z,100.00
2023-01-12T17:39:36.719Z,100.00
2023-01-12T17:42:22.304Z,100.00
2023-01-12T17:44:49.841Z,100.00
2023-01-12T17:47:17.384Z,100.00
2023-01-12T17:49:47.759Z,100.00
2023-01-12T17:52:15.487Z,100.00
2023-01-12T17:54:43.431Z,100.00
2023-01-12T17:57:10.986Z,100.00
2023-01-12T17:59:38.616Z,100.00
2023-01-12T18:02:07.116Z,100.00
2023-01-12T18:04:35.039Z,100.00
2023-01-12T18:07:03.947Z,100.00
2023-01-12T18:09:32.216Z,100.00
2023-01-12T18:12:00.305Z,100.00
2023-01-12T18:14:27.964Z,100.00
2023-01-12T18:16:55.507Z,100.00
2023-01-12T18:19:23.250Z,100.00
2023-01-12T18:21:51.181Z,100.00
2023-01-12T18:24:20.067Z,100.00
2023-01-12T18:26:48.136Z,100.00
2023-01-12T18:29:15.689Z,100.00
2023-01-12T18:31:43.259Z,100.00
2023-01-12T18:34:11.476Z,100.00
2023-01-12T18:36:40.451Z,100.00
2023-01-12T18:39:09.165Z,100.00
2023-01-12T18:41:56.006Z,100.00
2023-01-12T18:44:23.826Z,100.00
2023-01-12T18:47:08.969Z,100.00
2023-01-12T18:49:37.382Z,100.00
2023-01-12T18:52:23.058Z,100.00
2023-01-12T18:54:53.169Z,100.00
2023-01-12T18:57:23.824Z,100.00
2023-01-12T18:59:53.654Z,100.00
2023-01-12T19:02:21.707Z,100.00
2023-01-12T19:05:03.745Z,100.00
2023-01-12T19:07:33.632Z,100.00
2023-01-12T19:10:01.185Z,100.00
2023-01-12T19:12:31.133Z,100.00
2023-01-12T19:15:16.615Z,100.00
2023-01-12T19:17:44.280Z,100.00
2023-01-12T19:20:14.891Z,100.00
2023-01-12T19:22:59.947Z,100.00
2023-01-12T19:25:45.419Z,100.00
2023-01-12T19:28:36.297Z,100.00
2023-01-12T19:31:05.497Z,100.00
2023-01-12T19:33:33.574Z,100.00
2023-01-12T19:36:06.140Z,100.00
2023-01-12T19:38:33.696Z,100.00
2023-01-12T19:41:10.770Z,100.00
2023-01-12T19:43:41.053Z,100.00
2023-01-12T19:46:08.759Z,100.00
2023-01-12T19:48:37.466Z,100.00
2023-01-12T19:51:08.381Z,100.00
2023-01-12T19:53:39.005Z,100.00
2023-01-12T19:56:11.103Z,100.00
2023-01-12T19:58:40.058Z,100.00
2023-01-12T20:01:07.907Z,100.00
2023-01-12T20:03:35.927Z,100.00
2023-01-12T20:06:06.099Z,100.00
2023-01-12T20:08:33.655Z,100.00
2023-01-12T20:11:04.884Z,100.00
2023-01-12T20:13:33.315Z,100.00
2023-01-12T20:16:06.405Z,100.00
2023-01-12T20:18:34.011Z,100.00
2023-01-12T20:21:03.421Z,100.00
2023-01-12T20:23:30.981Z,100.00
2023-01-12T20:25:58.872Z,100.00
2023-01-12T20:28:26.408Z,100.00
2023-01-12T20:30:53.948Z,100.00
2023-01-12T20:33:24.372Z,100.00
2023-01-12T20:35:53.595Z,100.00
2023-01-12T20:38:22.631Z,100.00
2023-01-12T20:40:50.687Z,100.00
2023-01-12T20:43:18.215Z,100.00
2023-01-12T20:45:45.899Z,100.00
2023-01-12T20:48:14.864Z,100.00
2023-01-12T20:50:44.753Z,100.00
2023-01-12T20:53:13.084Z,100.00
2023-01-12T20:55:45.065Z,100.00
2023-01-12T20:58:12.894Z,100.00
2023-01-12T21:00:40.691Z,100.00
2023-01-12T21:03:08.678Z,100.00
2023-01-12T21:05:36.311Z,100.00
2023-01-12T21:08:08.254Z,100.00
2023-01-12T21:10:36.735Z,100.00
2023-01-12T21:13:04.711Z,100.00
2023-01-12T21:15:32.318Z,100.00
2023-01-12T21:17:59.887Z,100.00
2023-01-12T21:20:27.508Z,100.00
2023-01-12T21:22:55.048Z,100.00
2023-01-12T21:25:27.784Z,100.00
2023-01-12T21:27:55.404Z,100.00
2023-01-12T21:30:23.021Z,100.00
2023-01-12T21:32:50.609Z,100.00
2023-01-12T21:35:18.456Z,100.00
2023-01-12T21:37:46.093Z,100.00
2023-01-12T21:40:14.375Z,100.00
2023-01-12T21:42:57.223Z,100.00
2023-01-12T21:45:26.248Z,100.00
2023-01-12T21:47:55.398Z,100.00
2023-01-12T21:50:23.273Z,100.00
2023-01-12T21:52:50.811Z,100.00
2023-01-12T21:55:19.463Z,100.00
2023-01-12T21:57:48.383Z,100.00
2023-01-12T22:00:16.661Z,100.00
2023-01-12T22:02:44.449Z,100.00
2023-01-12T22:05:13.564Z,100.00
2023-01-12T22:07:41.267Z,100.00
2023-01-12T22:10:23.908Z,100.00
2023-01-12T22:12:55.160Z,100.00
2023-01-12T22:15:23.135Z,100.00
2023-01-12T22:17:51.500Z,100.00
2023-01-12T22:20:19.285Z,100.00
2023-01-12T22:22:46.900Z,100.00
2023-01-12T22:25:15.479Z,100.00
2023-01-12T22:27:43.349Z,100.00
2023-01-12T22:30:14.513Z,100.00
2023-01-12T22:32:42.373Z,100.00
2023-01-12T22:35:10.632Z,100.00
2023-01-12T22:37:39.034Z,100.00
2023-01-12T22:40:10.161Z,100.00
2023-01-12T22:42:55.435Z,100.00
2023-01-12T22:45:24.337Z,100.00
2023-01-12T22:47:53.279Z,100.00
2023-01-12T22:50:21.228Z,100.00
2023-01-12T22:52:52.970Z,100.00
2023-01-12T22:55:21.482Z,100.00
2023-01-12T22:57:49.224Z,100.00
2023-01-12T23:00:17.964Z,100.00
2023-01-12T23:03:02.965Z,100.00
2023-01-12T23:05:33.540Z,100.00
2023-01-12T23:08:01.271Z,100.00
2023-01-12T23:10:29.536Z,100.00
2023-01-12T23:13:16.114Z,100.00
2023-01-12T23:15:49.207Z,100.00
2023-01-12T23:18:19.978Z,100.00
2023-01-12T23:20:48.445Z,100.00
2023-01-12T23:23:18.115Z,100.00
2023-01-12T23:25:46.477Z,100.00
2023-01-12T23:28:14.997Z,100.00
2023-01-12T23:30:43.102Z,100.00
2023-01-12T23:33:11.169Z,100.00
2023-01-12T23:35:41.558Z,100.00
2023-01-12T23:38:14.922Z,100.00
2023-01-12T23:40:42.751Z,100.00
2023-01-12T23:43:10.423Z,100.00
2023-01-12T23:45:38.165Z,100.00
2023-01-12T23:48:07.779Z,100.00
2023-01-12T23:50:35.470Z,100.00
2023-01-12T23:53:04.657Z,100.00
2023-01-12T23:55:32.316Z,100.00
2023-01-12T23:58:00.009Z,100.00
